sensor_id;sensor_type;location;lat;lon;timestamp;P1;durP1;ratioP1;P2;durP2;ratioP2
74630;SDS011;63138;55.082;38.804;2023-05-20T00:01:04;6.40;;;2.95;;
74630;SDS011;63138;55.082;38.804;2023-05-20T00:03:30;7.32;;;2.78;;
74630;SDS011;63138;55.082;38.804;2023-05-20T00:05:56;5.10;;;2.73;;
74630;SDS011;63138;55.082;38.804;2023-05-20T00:08:22;4.82;;;2.33;;
74630;SDS011;63138;55.082;38.804;2023-05-20T00:10:48;10.20;;;2.70;;
74630;SDS011;63138;55.082;38.804;2023-05-20T00:13:14;8.37;;;3.23;;
74630;SDS011;63138;55.082;38.804;2023-05-20T00:15:40;7.85;;;2.70;;
74630;SDS011;63138;55.082;38.804;2023-05-20T00:18:06;5.90;;;3.45;;
74630;SDS011;63138;55.082;38.804;2023-05-20T00:20:32;5.47;;;2.95;;
74630;SDS011;63138;55.082;38.804;2023-05-20T00:22:58;5.63;;;3.20;;
74630;SDS011;63138;55.082;38.804;2023-05-20T00:25:24;6.53;;;2.83;;
74630;SDS011;63138;55.082;38.804;2023-05-20T00:27:50;5.72;;;3.35;;
74630;SDS011;63138;55.082;38.804;2023-05-20T00:30:17;7.77;;;3.60;;
74630;SDS011;63138;55.082;38.804;2023-05-20T00:32:43;7.68;;;2.80;;
74630;SDS011;63138;55.082;38.804;2023-05-20T00:35:09;6.68;;;2.97;;
74630;SDS011;63138;55.082;38.804;2023-05-20T00:37:36;6.90;;;3.05;;
74630;SDS011;63138;55.082;38.804;2023-05-20T00:40:02;6.57;;;3.33;;
74630;SDS011;63138;55.082;38.804;2023-05-20T00:42:30;5.90;;;3.10;;
74630;SDS011;63138;55.082;38.804;2023-05-20T00:44:56;4.43;;;2.97;;
74630;SDS011;63138;55.082;38.804;2023-05-20T00:47:25;4.67;;;2.90;;
74630;SDS011;63138;55.082;38.804;2023-05-20T00:49:57;6.72;;;3.22;;
74630;SDS011;63138;55.082;38.804;2023-05-20T00:52:23;4.68;;;3.10;;
74630;SDS011;63138;55.082;38.804;2023-05-20T00:54:50;5.80;;;3.08;;
74630;SDS011;63138;55.082;38.804;2023-05-20T00:57:18;5.65;;;2.97;;
74630;SDS011;63138;55.082;38.804;2023-05-20T00:59:44;5.87;;;3.37;;
74630;SDS011;63138;55.082;38.804;2023-05-20T01:02:10;4.43;;;3.00;;
74630;SDS011;63138;55.082;38.804;2023-05-20T01:04:36;5.45;;;2.97;;
74630;SDS011;63138;55.082;38.804;2023-05-20T01:07:03;7.13;;;3.42;;
74630;SDS011;63138;55.082;38.804;2023-05-20T01:09:31;7.55;;;3.05;;
74630;SDS011;63138;55.082;38.804;2023-05-20T01:14:28;5.60;;;2.75;;
74630;SDS011;63138;55.082;38.804;2023-05-20T01:17:00;4.15;;;2.83;;
74630;SDS011;63138;55.082;38.804;2023-05-20T01:19:37;5.65;;;3.38;;
74630;SDS011;63138;55.082;38.804;2023-05-20T01:22:08;4.50;;;3.15;;
74630;SDS011;63138;55.082;38.804;2023-05-20T01:24:43;5.97;;;3.30;;
74630;SDS011;63138;55.082;38.804;2023-05-20T01:27:10;6.80;;;3.13;;
74630;SDS011;63138;55.082;38.804;2023-05-20T01:29:42;6.32;;;3.33;;
74630;SDS011;63138;55.082;38.804;2023-05-20T01:32:10;6.65;;;3.08;;
74630;SDS011;63138;55.082;38.804;2023-05-20T01:34:40;5.93;;;4.10;;
74630;SDS011;63138;55.082;38.804;2023-05-20T01:37:08;8.93;;;3.70;;
74630;SDS011;63138;55.082;38.804;2023-05-20T01:39:35;6.13;;;3.80;;
74630;SDS011;63138;55.082;38.804;2023-05-20T01:42:06;6.40;;;3.53;;
74630;SDS011;63138;55.082;38.804;2023-05-20T01:44:34;4.82;;;3.03;;
74630;SDS011;63138;55.082;38.804;2023-05-20T01:47:01;7.32;;;3.35;;
74630;SDS011;63138;55.082;38.804;2023-05-20T01:49:27;6.30;;;2.90;;
74630;SDS011;63138;55.082;38.804;2023-05-20T01:51:54;6.13;;;3.72;;
74630;SDS011;63138;55.082;38.804;2023-05-20T01:54:20;5.60;;;3.45;;
74630;SDS011;63138;55.082;38.804;2023-05-20T01:56:46;5.20;;;3.93;;
74630;SDS011;63138;55.082;38.804;2023-05-20T01:59:12;4.72;;;3.10;;
74630;SDS011;63138;55.082;38.804;2023-05-20T02:01:39;5.45;;;3.67;;
74630;SDS011;63138;55.082;38.804;2023-05-20T02:04:04;4.68;;;3.55;;
74630;SDS011;63138;55.082;38.804;2023-05-20T02:06:30;4.27;;;3.30;;
74630;SDS011;63138;55.082;38.804;2023-05-20T02:08:56;7.20;;;3.47;;
74630;SDS011;63138;55.082;38.804;2023-05-20T02:11:22;4.55;;;3.42;;
74630;SDS011;63138;55.082;38.804;2023-05-20T02:13:49;5.00;;;3.47;;
74630;SDS011;63138;55.082;38.804;2023-05-20T02:16:16;6.60;;;3.53;;
74630;SDS011;63138;55.082;38.804;2023-05-20T02:18:43;10.45;;;3.42;;
74630;SDS011;63138;55.082;38.804;2023-05-20T02:21:15;6.18;;;3.60;;
74630;SDS011;63138;55.082;38.804;2023-05-20T02:23:41;5.70;;;3.03;;
74630;SDS011;63138;55.082;38.804;2023-05-20T02:26:07;5.10;;;3.43;;
74630;SDS011;63138;55.082;38.804;2023-05-20T02:28:35;6.05;;;3.80;;
74630;SDS011;63138;55.082;38.804;2023-05-20T02:31:05;4.85;;;3.38;;
74630;SDS011;63138;55.082;38.804;2023-05-20T02:33:31;4.80;;;3.90;;
74630;SDS011;63138;55.082;38.804;2023-05-20T02:35:57;6.47;;;3.47;;
74630;SDS011;63138;55.082;38.804;2023-05-20T02:38:24;7.82;;;3.70;;
74630;SDS011;63138;55.082;38.804;2023-05-20T02:40:49;7.93;;;4.10;;
74630;SDS011;63138;55.082;38.804;2023-05-20T02:43:16;6.28;;;3.80;;
74630;SDS011;63138;55.082;38.804;2023-05-20T02:45:43;6.73;;;4.10;;
74630;SDS011;63138;55.082;38.804;2023-05-20T02:48:09;5.28;;;3.97;;
74630;SDS011;63138;55.082;38.804;2023-05-20T02:50:39;6.60;;;4.30;;
74630;SDS011;63138;55.082;38.804;2023-05-20T02:53:05;6.78;;;4.50;;
74630;SDS011;63138;55.082;38.804;2023-05-20T02:55:33;7.13;;;4.03;;
74630;SDS011;63138;55.082;38.804;2023-05-20T02:58:00;7.68;;;3.85;;
74630;SDS011;63138;55.082;38.804;2023-05-20T03:00:27;6.20;;;4.60;;
74630;SDS011;63138;55.082;38.804;2023-05-20T03:02:56;7.85;;;4.53;;
74630;SDS011;63138;55.082;38.804;2023-05-20T03:05:27;7.00;;;4.70;;
74630;SDS011;63138;55.082;38.804;2023-05-20T03:07:55;9.13;;;5.10;;
74630;SDS011;63138;55.082;38.804;2023-05-20T03:10:21;13.75;;;4.55;;
74630;SDS011;63138;55.082;38.804;2023-05-20T03:12:46;9.63;;;4.63;;
74630;SDS011;63138;55.082;38.804;2023-05-20T03:15:14;7.87;;;4.70;;
74630;SDS011;63138;55.082;38.804;2023-05-20T03:17:40;8.82;;;4.85;;
74630;SDS011;63138;55.082;38.804;2023-05-20T03:20:06;8.90;;;5.40;;
74630;SDS011;63138;55.082;38.804;2023-05-20T03:22:33;8.38;;;5.00;;
74630;SDS011;63138;55.082;38.804;2023-05-20T03:25:00;6.93;;;5.05;;
74630;SDS011;63138;55.082;38.804;2023-05-20T03:27:33;8.23;;;4.03;;
74630;SDS011;63138;55.082;38.804;2023-05-20T03:29:58;6.53;;;4.28;;
74630;SDS011;63138;55.082;38.804;2023-05-20T03:32:24;7.15;;;4.03;;
74630;SDS011;63138;55.082;38.804;2023-05-20T03:34:50;5.60;;;4.30;;
74630;SDS011;63138;55.082;38.804;2023-05-20T03:37:17;7.70;;;4.30;;
74630;SDS011;63138;55.082;38.804;2023-05-20T03:39:43;5.72;;;4.20;;
74630;SDS011;63138;55.082;38.804;2023-05-20T03:42:10;5.45;;;4.40;;
74630;SDS011;63138;55.082;38.804;2023-05-20T03:44:36;8.00;;;4.47;;
74630;SDS011;63138;55.082;38.804;2023-05-20T03:47:02;6.25;;;4.15;;
74630;SDS011;63138;55.082;38.804;2023-05-20T03:49:28;7.85;;;4.32;;
74630;SDS011;63138;55.082;38.804;2023-05-20T03:51:55;6.90;;;4.20;;
74630;SDS011;63138;55.082;38.804;2023-05-20T03:54:21;8.60;;;4.73;;
74630;SDS011;63138;55.082;38.804;2023-05-20T03:56:50;6.55;;;4.05;;
74630;SDS011;63138;55.082;38.804;2023-05-20T03:59:17;7.07;;;4.43;;
74630;SDS011;63138;55.082;38.804;2023-05-20T04:01:44;5.80;;;4.22;;
74630;SDS011;63138;55.082;38.804;2023-05-20T04:04:10;7.63;;;4.25;;
74630;SDS011;63138;55.082;38.804;2023-05-20T04:06:36;6.70;;;4.47;;
74630;SDS011;63138;55.082;38.804;2023-05-20T04:09:02;6.53;;;4.20;;
74630;SDS011;63138;55.082;38.804;2023-05-20T04:11:29;6.53;;;4.47;;
74630;SDS011;63138;55.082;38.804;2023-05-20T04:13:55;8.05;;;4.40;;
74630;SDS011;63138;55.082;38.804;2023-05-20T04:16:22;9.93;;;4.78;;
74630;SDS011;63138;55.082;38.804;2023-05-20T04:18:48;8.13;;;4.40;;
74630;SDS011;63138;55.082;38.804;2023-05-20T04:21:15;7.22;;;4.75;;
74630;SDS011;63138;55.082;38.804;2023-05-20T04:23:41;6.75;;;4.57;;
74630;SDS011;63138;55.082;38.804;2023-05-20T04:26:09;9.57;;;4.50;;
74630;SDS011;63138;55.082;38.804;2023-05-20T04:28:34;8.30;;;4.33;;
74630;SDS011;63138;55.082;38.804;2023-05-20T04:31:03;7.57;;;4.93;;
74630;SDS011;63138;55.082;38.804;2023-05-20T04:33:32;8.15;;;4.43;;
74630;SDS011;63138;55.082;38.804;2023-05-20T04:36:02;7.25;;;4.20;;
74630;SDS011;63138;55.082;38.804;2023-05-20T04:38:30;6.82;;;3.90;;
74630;SDS011;63138;55.082;38.804;2023-05-20T04:40:58;7.73;;;4.30;;
74630;SDS011;63138;55.082;38.804;2023-05-20T04:43:24;6.15;;;3.92;;
74630;SDS011;63138;55.082;38.804;2023-05-20T04:45:55;7.55;;;5.38;;
74630;SDS011;63138;55.082;38.804;2023-05-20T04:48:22;6.43;;;4.32;;
74630;SDS011;63138;55.082;38.804;2023-05-20T04:50:50;7.40;;;5.20;;
74630;SDS011;63138;55.082;38.804;2023-05-20T04:53:17;8.50;;;5.43;;
74630;SDS011;63138;55.082;38.804;2023-05-20T04:55:44;5.68;;;4.82;;
74630;SDS011;63138;55.082;38.804;2023-05-20T04:58:11;5.93;;;4.40;;
74630;SDS011;63138;55.082;38.804;2023-05-20T05:00:40;6.05;;;4.70;;
74630;SDS011;63138;55.082;38.804;2023-05-20T05:03:07;5.97;;;4.20;;
74630;SDS011;63138;55.082;38.804;2023-05-20T05:05:37;6.03;;;4.30;;
74630;SDS011;63138;55.082;38.804;2023-05-20T05:08:05;6.35;;;4.30;;
74630;SDS011;63138;55.082;38.804;2023-05-20T05:10:33;4.75;;;4.25;;
74630;SDS011;63138;55.082;38.804;2023-05-20T05:13:00;6.47;;;4.22;;
74630;SDS011;63138;55.082;38.804;2023-05-20T05:15:27;4.82;;;4.10;;
74630;SDS011;63138;55.082;38.804;2023-05-20T05:17:53;6.37;;;3.67;;
74630;SDS011;63138;55.082;38.804;2023-05-20T05:20:20;7.38;;;4.00;;
74630;SDS011;63138;55.082;38.804;2023-05-20T05:22:46;4.53;;;3.60;;
74630;SDS011;63138;55.082;38.804;2023-05-20T05:25:13;5.30;;;3.80;;
74630;SDS011;63138;55.082;38.804;2023-05-20T05:27:38;5.73;;;3.87;;
74630;SDS011;63138;55.082;38.804;2023-05-20T05:30:06;5.78;;;3.70;;
74630;SDS011;63138;55.082;38.804;2023-05-20T05:32:33;5.75;;;3.88;;
74630;SDS011;63138;55.082;38.804;2023-05-20T05:34:59;5.03;;;3.70;;
74630;SDS011;63138;55.082;38.804;2023-05-20T05:37:29;5.38;;;3.75;;
74630;SDS011;63138;55.082;38.804;2023-05-20T05:39:55;8.83;;;3.50;;
74630;SDS011;63138;55.082;38.804;2023-05-20T05:42:22;4.95;;;3.60;;
74630;SDS011;63138;55.082;38.804;2023-05-20T05:44:48;5.80;;;3.95;;
74630;SDS011;63138;55.082;38.804;2023-05-20T05:47:15;4.93;;;3.40;;
74630;SDS011;63138;55.082;38.804;2023-05-20T05:49:41;4.43;;;3.70;;
74630;SDS011;63138;55.082;38.804;2023-05-20T05:52:07;5.30;;;4.00;;
74630;SDS011;63138;55.082;38.804;2023-05-20T05:54:34;5.82;;;3.80;;
74630;SDS011;63138;55.082;38.804;2023-05-20T05:57:00;6.18;;;3.97;;
74630;SDS011;63138;55.082;38.804;2023-05-20T05:59:29;3.97;;;3.58;;
74630;SDS011;63138;55.082;38.804;2023-05-20T06:01:55;7.07;;;3.80;;
74630;SDS011;63138;55.082;38.804;2023-05-20T06:04:21;5.13;;;3.40;;
74630;SDS011;63138;55.082;38.804;2023-05-20T06:06:50;4.60;;;3.70;;
74630;SDS011;63138;55.082;38.804;2023-05-20T06:09:16;8.73;;;3.97;;
74630;SDS011;63138;55.082;38.804;2023-05-20T06:11:42;4.10;;;3.60;;
74630;SDS011;63138;55.082;38.804;2023-05-20T06:14:08;4.87;;;3.73;;
74630;SDS011;63138;55.082;38.804;2023-05-20T06:16:35;4.45;;;3.58;;
74630;SDS011;63138;55.082;38.804;2023-05-20T06:19:00;4.70;;;4.03;;
74630;SDS011;63138;55.082;38.804;2023-05-20T06:21:28;5.53;;;4.03;;
74630;SDS011;63138;55.082;38.804;2023-05-20T06:23:54;9.00;;;4.30;;
74630;SDS011;63138;55.082;38.804;2023-05-20T06:26:20;15.83;;;4.30;;
74630;SDS011;63138;55.082;38.804;2023-05-20T06:28:47;4.10;;;3.70;;
74630;SDS011;63138;55.082;38.804;2023-05-20T06:31:31;4.57;;;4.10;;
74630;SDS011;63138;55.082;38.804;2023-05-20T06:33:57;4.25;;;3.15;;
74630;SDS011;63138;55.082;38.804;2023-05-20T06:36:25;4.17;;;2.90;;
74630;SDS011;63138;55.082;38.804;2023-05-20T06:38:51;6.88;;;3.00;;
74630;SDS011;63138;55.082;38.804;2023-05-20T06:41:18;3.75;;;3.20;;
74630;SDS011;63138;55.082;38.804;2023-05-20T06:44:03;3.85;;;2.50;;
74630;SDS011;63138;55.082;38.804;2023-05-20T06:46:28;5.45;;;2.83;;
74630;SDS011;63138;55.082;38.804;2023-05-20T06:49:00;5.10;;;2.93;;
74630;SDS011;63138;55.082;38.804;2023-05-20T06:51:28;3.78;;;3.38;;
74630;SDS011;63138;55.082;38.804;2023-05-20T06:53:54;6.90;;;4.75;;
74630;SDS011;63138;55.082;38.804;2023-05-20T06:56:20;5.82;;;4.30;;
74630;SDS011;63138;55.082;38.804;2023-05-20T06:58:47;4.43;;;2.90;;
74630;SDS011;63138;55.082;38.804;2023-05-20T07:01:14;4.95;;;4.47;;
74630;SDS011;63138;55.082;38.804;2023-05-20T07:03:40;6.93;;;3.33;;
74630;SDS011;63138;55.082;38.804;2023-05-20T07:06:09;3.78;;;2.63;;
74630;SDS011;63138;55.082;38.804;2023-05-20T07:08:35;10.15;;;2.88;;
74630;SDS011;63138;55.082;38.804;2023-05-20T07:11:01;4.07;;;3.10;;
74630;SDS011;63138;55.082;38.804;2023-05-20T07:13:28;5.10;;;3.92;;
74630;SDS011;63138;55.082;38.804;2023-05-20T07:15:57;7.25;;;2.90;;
74630;SDS011;63138;55.082;38.804;2023-05-20T07:18:23;6.13;;;4.82;;
74630;SDS011;63138;55.082;38.804;2023-05-20T07:20:51;5.93;;;4.57;;
74630;SDS011;63138;55.082;38.804;2023-05-20T07:23:34;3.58;;;2.63;;
74630;SDS011;63138;55.082;38.804;2023-05-20T07:26:01;4.70;;;4.30;;
74630;SDS011;63138;55.082;38.804;2023-05-20T07:28:27;5.03;;;3.13;;
74630;SDS011;63138;55.082;38.804;2023-05-20T07:30:54;4.20;;;3.30;;
74630;SDS011;63138;55.082;38.804;2023-05-20T07:33:24;3.93;;;3.53;;
74630;SDS011;63138;55.082;38.804;2023-05-20T07:35:50;4.75;;;3.72;;
74630;SDS011;63138;55.082;38.804;2023-05-20T07:38:19;4.72;;;2.80;;
74630;SDS011;63138;55.082;38.804;2023-05-20T07:40:50;4.18;;;2.67;;
74630;SDS011;63138;55.082;38.804;2023-05-20T07:43:16;7.63;;;3.30;;
74630;SDS011;63138;55.082;38.804;2023-05-20T07:45:42;4.80;;;3.13;;
74630;SDS011;63138;55.082;38.804;2023-05-20T07:48:07;8.00;;;3.13;;
74630;SDS011;63138;55.082;38.804;2023-05-20T07:50:35;5.50;;;4.50;;
74630;SDS011;63138;55.082;38.804;2023-05-20T07:53:02;4.23;;;2.10;;
74630;SDS011;63138;55.082;38.804;2023-05-20T07:55:32;5.95;;;3.65;;
74630;SDS011;63138;55.082;38.804;2023-05-20T07:57:59;3.33;;;2.38;;
74630;SDS011;63138;55.082;38.804;2023-05-20T08:00:25;3.35;;;2.92;;
74630;SDS011;63138;55.082;38.804;2023-05-20T08:02:51;7.18;;;3.92;;
74630;SDS011;63138;55.082;38.804;2023-05-20T08:05:24;5.30;;;3.87;;
74630;SDS011;63138;55.082;38.804;2023-05-20T08:07:50;4.00;;;3.60;;
74630;SDS011;63138;55.082;38.804;2023-05-20T08:10:17;7.18;;;3.00;;
74630;SDS011;63138;55.082;38.804;2023-05-20T08:12:45;6.40;;;2.22;;
74630;SDS011;63138;55.082;38.804;2023-05-20T08:15:11;7.45;;;2.75;;
74630;SDS011;63138;55.082;38.804;2023-05-20T08:17:39;8.27;;;2.67;;
74630;SDS011;63138;55.082;38.804;2023-05-20T08:20:06;7.97;;;2.45;;
74630;SDS011;63138;55.082;38.804;2023-05-20T08:22:37;4.10;;;2.42;;
74630;SDS011;63138;55.082;38.804;2023-05-20T08:25:05;11.55;;;2.70;;
74630;SDS011;63138;55.082;38.804;2023-05-20T08:27:32;3.33;;;2.40;;
74630;SDS011;63138;55.082;38.804;2023-05-20T08:29:59;5.83;;;3.03;;
74630;SDS011;63138;55.082;38.804;2023-05-20T08:32:26;6.20;;;4.50;;
74630;SDS011;63138;55.082;38.804;2023-05-20T08:34:53;8.52;;;2.63;;
74630;SDS011;63138;55.082;38.804;2023-05-20T08:37:20;5.85;;;2.25;;
74630;SDS011;63138;55.082;38.804;2023-05-20T08:39:46;4.03;;;2.33;;
74630;SDS011;63138;55.082;38.804;2023-05-20T08:42:13;7.30;;;2.20;;
74630;SDS011;63138;55.082;38.804;2023-05-20T08:44:41;5.25;;;2.08;;
74630;SDS011;63138;55.082;38.804;2023-05-20T08:47:11;4.47;;;2.08;;
74630;SDS011;63138;55.082;38.804;2023-05-20T08:49:37;4.60;;;2.53;;
74630;SDS011;63138;55.082;38.804;2023-05-20T08:52:04;4.50;;;2.17;;
74630;SDS011;63138;55.082;38.804;2023-05-20T08:54:51;4.60;;;2.10;;
74630;SDS011;63138;55.082;38.804;2023-05-20T08:57:18;5.10;;;2.17;;
74630;SDS011;63138;55.082;38.804;2023-05-20T08:59:45;4.63;;;2.28;;
74630;SDS011;63138;55.082;38.804;2023-05-20T09:02:13;4.50;;;2.10;;
74630;SDS011;63138;55.082;38.804;2023-05-20T09:04:39;4.07;;;2.20;;
74630;SDS011;63138;55.082;38.804;2023-05-20T09:07:05;5.47;;;2.38;;
74630;SDS011;63138;55.082;38.804;2023-05-20T09:09:32;5.20;;;2.30;;
74630;SDS011;63138;55.082;38.804;2023-05-20T09:11:59;4.38;;;2.15;;
74630;SDS011;63138;55.082;38.804;2023-05-20T09:14:29;4.40;;;2.37;;
74630;SDS011;63138;55.082;38.804;2023-05-20T09:16:55;5.18;;;2.50;;
74630;SDS011;63138;55.082;38.804;2023-05-20T09:19:22;3.90;;;2.70;;
74630;SDS011;63138;55.082;38.804;2023-05-20T09:21:52;4.43;;;2.58;;
74630;SDS011;63138;55.082;38.804;2023-05-20T09:24:37;5.88;;;2.38;;
74630;SDS011;63138;55.082;38.804;2023-05-20T09:27:07;4.20;;;2.43;;
74630;SDS011;63138;55.082;38.804;2023-05-20T09:29:34;7.70;;;2.03;;
74630;SDS011;63138;55.082;38.804;2023-05-20T09:32:01;3.28;;;2.33;;
74630;SDS011;63138;55.082;38.804;2023-05-20T09:34:28;5.07;;;2.30;;
74630;SDS011;63138;55.082;38.804;2023-05-20T09:36:54;6.00;;;2.50;;
74630;SDS011;63138;55.082;38.804;2023-05-20T09:39:24;4.07;;;2.50;;
74630;SDS011;63138;55.082;38.804;2023-05-20T09:41:56;5.07;;;2.75;;
74630;SDS011;63138;55.082;38.804;2023-05-20T09:44:32;4.10;;;2.83;;
74630;SDS011;63138;55.082;38.804;2023-05-20T09:46:59;6.22;;;2.40;;
74630;SDS011;63138;55.082;38.804;2023-05-20T09:49:25;5.45;;;2.42;;
74630;SDS011;63138;55.082;38.804;2023-05-20T09:51:53;8.17;;;2.30;;
74630;SDS011;63138;55.082;38.804;2023-05-20T09:54:22;6.30;;;2.35;;
74630;SDS011;63138;55.082;38.804;2023-05-20T09:56:49;6.13;;;2.45;;
74630;SDS011;63138;55.082;38.804;2023-05-20T09:59:16;3.30;;;2.10;;
74630;SDS011;63138;55.082;38.804;2023-05-20T10:01:46;4.47;;;2.40;;
74630;SDS011;63138;55.082;38.804;2023-05-20T10:04:12;3.30;;;2.10;;
74630;SDS011;63138;55.082;38.804;2023-05-20T10:15:27;4.50;;;2.77;;
74630;SDS011;63138;55.082;38.804;2023-05-20T10:20:45;3.83;;;2.50;;
74630;SDS011;63138;55.082;38.804;2023-05-20T10:23:33;6.78;;;2.40;;
74630;SDS011;63138;55.082;38.804;2023-05-20T10:26:04;4.47;;;2.42;;
74630;SDS011;63138;55.082;38.804;2023-05-20T10:28:32;3.47;;;2.60;;
74630;SDS011;63138;55.082;38.804;2023-05-20T10:31:22;6.03;;;2.63;;
74630;SDS011;63138;55.082;38.804;2023-05-20T10:33:50;4.75;;;2.35;;
74630;SDS011;63138;55.082;38.804;2023-05-20T10:36:25;6.20;;;2.15;;
74630;SDS011;63138;55.082;38.804;2023-05-20T10:38:53;4.30;;;2.47;;
74630;SDS011;63138;55.082;38.804;2023-05-20T10:41:23;5.07;;;2.47;;
74630;SDS011;63138;55.082;38.804;2023-05-20T10:44:00;4.55;;;2.45;;
74630;SDS011;63138;55.082;38.804;2023-05-20T10:46:28;4.82;;;2.30;;
74630;SDS011;63138;55.082;38.804;2023-05-20T10:48:54;7.35;;;2.47;;
74630;SDS011;63138;55.082;38.804;2023-05-20T10:51:20;3.72;;;2.10;;
74630;SDS011;63138;55.082;38.804;2023-05-20T10:53:51;7.23;;;2.47;;
74630;SDS011;63138;55.082;38.804;2023-05-20T10:56:20;4.22;;;2.15;;
74630;SDS011;63138;55.082;38.804;2023-05-20T10:58:48;5.38;;;2.40;;
74630;SDS011;63138;55.082;38.804;2023-05-20T11:01:16;4.72;;;2.15;;
74630;SDS011;63138;55.082;38.804;2023-05-20T11:03:43;3.28;;;2.00;;
74630;SDS011;63138;55.082;38.804;2023-05-20T11:06:15;4.77;;;2.37;;
74630;SDS011;63138;55.082;38.804;2023-05-20T11:08:42;3.72;;;2.10;;
74630;SDS011;63138;55.082;38.804;2023-05-20T11:11:10;4.43;;;1.98;;
74630;SDS011;63138;55.082;38.804;2023-05-20T11:13:37;5.35;;;2.35;;
74630;SDS011;63138;55.082;38.804;2023-05-20T11:16:03;4.18;;;2.33;;
74630;SDS011;63138;55.082;38.804;2023-05-20T11:18:30;5.03;;;2.53;;
74630;SDS011;63138;55.082;38.804;2023-05-20T11:20:58;3.70;;;2.30;;
74630;SDS011;63138;55.082;38.804;2023-05-20T11:23:26;6.45;;;2.55;;
74630;SDS011;63138;55.082;38.804;2023-05-20T11:25:53;4.13;;;2.45;;
74630;SDS011;63138;55.082;38.804;2023-05-20T11:28:21;4.65;;;2.33;;
74630;SDS011;63138;55.082;38.804;2023-05-20T11:30:48;4.67;;;2.30;;
74630;SDS011;63138;55.082;38.804;2023-05-20T11:33:15;7.03;;;5.10;;
74630;SDS011;63138;55.082;38.804;2023-05-20T11:35:43;4.68;;;3.70;;
74630;SDS011;63138;55.082;38.804;2023-05-20T11:38:19;6.53;;;2.75;;
74630;SDS011;63138;55.082;38.804;2023-05-20T11:40:50;5.72;;;3.58;;
74630;SDS011;63138;55.082;38.804;2023-05-20T11:43:18;4.23;;;2.87;;
74630;SDS011;63138;55.082;38.804;2023-05-20T11:46:10;6.00;;;2.53;;
74630;SDS011;63138;55.082;38.804;2023-05-20T11:48:36;4.65;;;2.60;;
74630;SDS011;63138;55.082;38.804;2023-05-20T11:51:02;5.80;;;3.10;;
74630;SDS011;63138;55.082;38.804;2023-05-20T11:53:28;6.50;;;3.00;;
74630;SDS011;63138;55.082;38.804;2023-05-20T11:55:55;4.63;;;2.65;;
74630;SDS011;63138;55.082;38.804;2023-05-20T11:58:24;5.35;;;2.38;;
74630;SDS011;63138;55.082;38.804;2023-05-20T12:00:51;3.40;;;2.30;;
74630;SDS011;63138;55.082;38.804;2023-05-20T12:03:18;5.97;;;3.07;;
74630;SDS011;63138;55.082;38.804;2023-05-20T12:05:44;5.40;;;2.75;;
74630;SDS011;63138;55.082;38.804;2023-05-20T12:08:12;6.85;;;2.55;;
74630;SDS011;63138;55.082;38.804;2023-05-20T12:10:39;4.35;;;2.67;;
74630;SDS011;63138;55.082;38.804;2023-05-20T12:13:06;4.35;;;2.50;;
74630;SDS011;63138;55.082;38.804;2023-05-20T12:15:38;4.87;;;2.77;;
74630;SDS011;63138;55.082;38.804;2023-05-20T12:18:05;5.30;;;2.50;;
74630;SDS011;63138;55.082;38.804;2023-05-20T12:20:32;4.03;;;2.90;;
74630;SDS011;63138;55.082;38.804;2023-05-20T12:22:59;5.45;;;2.80;;
74630;SDS011;63138;55.082;38.804;2023-05-20T12:25:26;4.95;;;2.60;;
74630;SDS011;63138;55.082;38.804;2023-05-20T12:27:52;5.10;;;3.00;;
74630;SDS011;63138;55.082;38.804;2023-05-20T12:30:18;5.22;;;2.88;;
74630;SDS011;63138;55.082;38.804;2023-05-20T12:32:46;6.47;;;2.38;;
74630;SDS011;63138;55.082;38.804;2023-05-20T12:35:37;5.03;;;2.38;;
74630;SDS011;63138;55.082;38.804;2023-05-20T12:38:04;6.20;;;2.50;;
74630;SDS011;63138;55.082;38.804;2023-05-20T12:40:31;4.40;;;2.40;;
74630;SDS011;63138;55.082;38.804;2023-05-20T12:42:57;4.85;;;2.30;;
74630;SDS011;63138;55.082;38.804;2023-05-20T12:45:24;4.97;;;2.50;;
74630;SDS011;63138;55.082;38.804;2023-05-20T12:47:50;5.50;;;2.70;;
74630;SDS011;63138;55.082;38.804;2023-05-20T12:50:16;5.63;;;2.60;;
74630;SDS011;63138;55.082;38.804;2023-05-20T12:52:42;6.32;;;2.97;;
74630;SDS011;63138;55.082;38.804;2023-05-20T12:55:08;5.28;;;2.78;;
74630;SDS011;63138;55.082;38.804;2023-05-20T12:57:42;3.55;;;2.35;;
74630;SDS011;63138;55.082;38.804;2023-05-20T13:00:09;4.23;;;2.50;;
74630;SDS011;63138;55.082;38.804;2023-05-20T13:02:36;3.38;;;2.25;;
74630;SDS011;63138;55.082;38.804;2023-05-20T13:05:02;4.95;;;2.78;;
74630;SDS011;63138;55.082;38.804;2023-05-20T13:07:30;4.05;;;2.80;;
74630;SDS011;63138;55.082;38.804;2023-05-20T13:09:57;3.60;;;2.50;;
74630;SDS011;63138;55.082;38.804;2023-05-20T13:12:23;3.53;;;2.80;;
74630;SDS011;63138;55.082;38.804;2023-05-20T13:14:50;4.45;;;3.53;;
74630;SDS011;63138;55.082;38.804;2023-05-20T13:17:17;7.07;;;3.28;;
74630;SDS011;63138;55.082;38.804;2023-05-20T13:19:43;6.20;;;3.15;;
74630;SDS011;63138;55.082;38.804;2023-05-20T13:22:10;4.17;;;2.50;;
74630;SDS011;63138;55.082;38.804;2023-05-20T13:24:36;5.35;;;2.90;;
74630;SDS011;63138;55.082;38.804;2023-05-20T13:27:02;6.82;;;2.60;;
74630;SDS011;63138;55.082;38.804;2023-05-20T13:29:29;5.07;;;3.10;;
74630;SDS011;63138;55.082;38.804;2023-05-20T13:31:55;4.57;;;2.30;;
74630;SDS011;63138;55.082;38.804;2023-05-20T13:34:21;4.87;;;2.20;;
74630;SDS011;63138;55.082;38.804;2023-05-20T13:36:47;7.22;;;2.53;;
74630;SDS011;63138;55.082;38.804;2023-05-20T13:39:16;4.38;;;2.50;;
74630;SDS011;63138;55.082;38.804;2023-05-20T13:41:42;6.35;;;2.78;;
74630;SDS011;63138;55.082;38.804;2023-05-20T13:44:08;4.40;;;2.50;;
74630;SDS011;63138;55.082;38.804;2023-05-20T13:46:34;7.65;;;2.30;;
74630;SDS011;63138;55.082;38.804;2023-05-20T13:49:00;7.95;;;2.30;;
74630;SDS011;63138;55.082;38.804;2023-05-20T13:51:26;4.00;;;2.33;;
74630;SDS011;63138;55.082;38.804;2023-05-20T13:53:52;5.18;;;2.40;;
74630;SDS011;63138;55.082;38.804;2023-05-20T13:56:17;6.70;;;2.83;;
74630;SDS011;63138;55.082;38.804;2023-05-20T13:58:44;3.87;;;2.30;;
74630;SDS011;63138;55.082;38.804;2023-05-20T14:01:09;2.97;;;2.10;;
74630;SDS011;63138;55.082;38.804;2023-05-20T14:03:37;5.22;;;2.30;;
74630;SDS011;63138;55.082;38.804;2023-05-20T14:06:05;4.38;;;2.40;;
74630;SDS011;63138;55.082;38.804;2023-05-20T14:08:31;6.97;;;3.00;;
74630;SDS011;63138;55.082;38.804;2023-05-20T14:10:57;6.68;;;2.85;;
74630;SDS011;63138;55.082;38.804;2023-05-20T14:13:23;5.47;;;2.70;;
74630;SDS011;63138;55.082;38.804;2023-05-20T14:15:50;8.50;;;2.67;;
74630;SDS011;63138;55.082;38.804;2023-05-20T14:18:19;6.15;;;3.08;;
74630;SDS011;63138;55.082;38.804;2023-05-20T14:20:45;4.73;;;2.43;;
74630;SDS011;63138;55.082;38.804;2023-05-20T14:23:11;5.45;;;2.45;;
74630;SDS011;63138;55.082;38.804;2023-05-20T14:25:38;3.97;;;2.28;;
74630;SDS011;63138;55.082;38.804;2023-05-20T14:28:04;5.95;;;2.78;;
74630;SDS011;63138;55.082;38.804;2023-05-20T14:30:31;6.10;;;2.60;;
74630;SDS011;63138;55.082;38.804;2023-05-20T14:32:56;4.80;;;2.50;;
74630;SDS011;63138;55.082;38.804;2023-05-20T14:35:22;4.22;;;2.22;;
74630;SDS011;63138;55.082;38.804;2023-05-20T14:37:48;5.25;;;2.40;;
74630;SDS011;63138;55.082;38.804;2023-05-20T14:40:14;3.30;;;1.93;;
74630;SDS011;63138;55.082;38.804;2023-05-20T14:42:40;5.13;;;2.40;;
74630;SDS011;63138;55.082;38.804;2023-05-20T14:45:06;3.60;;;2.28;;
74630;SDS011;63138;55.082;38.804;2023-05-20T14:47:34;5.47;;;2.92;;
74630;SDS011;63138;55.082;38.804;2023-05-20T14:50:00;4.60;;;2.30;;